Time;durP1;ratioP1;P1;durP2;ratioP2;P2;SDS_P1;SDS_P2;PMS_P1;PMS_P2;Temp;Humidity;BMP_temperature;BMP_pressure;BME280_temperature;BME280_humidity;BME280_pressure;Samples;Min_cycle;Max_cycle;Signal;HPM_P1;HPM_P2
2023/01/04 00:02:03;;;;;;;36.53;16.50;;;4.10;99.90;;;;;;4958016;28;20096;-90
2023/01/04 00:04:29;;;;;;;40.53;17.92;;;4.00;99.90;;;;;;4957869;28;20089;-91
2023/01/04 00:06:55;;;;;;;43.30;20.13;;;4.00;99.90;;;;;;4957762;28;20035;-90
2023/01/04 00:09:21;;;;;;;48.63;21.80;;;4.00;99.90;;;;;;4957858;28;20034;-90
2023/01/04 00:11:47;;;;;;;53.22;23.67;;;4.00;99.90;;;;;;4957910;28;20027;-91
2023/01/04 00:14:16;;;;;;;59.53;25.38;;;4.00;99.90;;;;;;4958226;28;20039;-91
2023/01/04 00:20:29;;;;;;;57.17;26.95;;;4.00;99.90;;;;;;4975499;28;20093;-91
2023/01/04 00:22:54;;;;;;;76.20;28.75;;;4.00;99.90;;;;;;5058506;28;20035;-91
2023/01/04 00:25:20;;;;;;;67.90;29.08;;;4.10;99.90;;;;;;5058306;28;20026;-90
2023/01/04 00:27:46;;;;;;;69.90;30.13;;;4.20;99.90;;;;;;5058501;28;20072;-92
2023/01/04 00:30:12;;;;;;;66.72;30.58;;;4.30;99.90;;;;;;4973677;28;20034;-92
2023/01/04 00:32:38;;;;;;;65.38;31.23;;;4.40;99.90;;;;;;5075244;28;20033;-91
2023/01/04 00:35:04;;;;;;;71.32;30.67;;;4.50;99.90;;;;;;5058177;28;20023;-92
2023/01/04 00:37:30;;;;;;;64.70;28.73;;;4.50;99.90;;;;;;5058467;28;20039;-91
2023/01/04 00:39:55;;;;;;;66.07;28.90;;;4.50;99.90;;;;;;5058481;28;20475;-90
2023/01/04 00:42:21;;;;;;;66.53;29.50;;;4.50;99.90;;;;;;5057220;28;20034;-91
2023/01/04 00:44:47;;;;;;;66.15;29.13;;;4.60;99.90;;;;;;5058195;28;20171;-89
2023/01/04 00:47:12;;;;;;;70.60;30.48;;;4.60;99.90;;;;;;5057973;28;20034;-90
2023/01/04 00:49:38;;;;;;;65.82;29.73;;;4.60;99.90;;;;;;5058282;28;20054;-91
2023/01/04 00:52:16;;;;;;;64.95;28.23;;;4.70;99.90;;;;;;5058621;28;20023;-91
2023/01/04 00:54:42;;;;;;;57.40;27.95;;;4.70;99.90;;;;;;5075129;28;20035;-91
2023/01/04 00:57:07;;;;;;;60.00;28.02;;;4.80;99.90;;;;;;5057972;28;20046;-91
2023/01/04 00:59:33;;;;;;;52.47;25.52;;;4.70;99.90;;;;;;5057916;28;20150;-91
2023/01/04 01:01:59;;;;;;;51.38;26.67;;;4.70;99.90;;;;;;5057708;28;20066;-90
2023/01/04 01:04:25;;;;;;;62.58;27.20;;;4.60;99.90;;;;;;5058206;28;20030;-92
2023/01/04 01:06:51;;;;;;;52.63;25.80;;;4.50;99.90;;;;;;4973330;28;20034;-91
2023/01/04 01:09:17;;;;;;;52.42;24.30;;;4.50;99.90;;;;;;5057748;28;20057;-90
2023/01/04 01:11:43;;;;;;;57.05;25.95;;;4.40;99.90;;;;;;4972998;28;20034;-91
2023/01/04 01:14:14;;;;;;;57.50;27.02;;;4.40;99.90;;;;;;5057964;28;20034;-91
2023/01/04 01:16:40;;;;;;;56.67;26.45;;;4.30;99.90;;;;;;4973261;28;20035;-90
2023/01/04 01:19:28;;;;;;;64.85;27.05;;;4.30;99.90;;;;;;5057680;28;20023;-91
2023/01/04 01:21:55;;;;;;;52.08;26.10;;;4.30;99.90;;;;;;5057958;28;20038;-91
2023/01/04 01:24:21;;;;;;;53.33;26.77;;;4.20;99.90;;;;;;4972858;28;20042;-91
2023/01/04 01:26:47;;;;;;;47.13;24.65;;;4.10;99.90;;;;;;4972950;28;20035;-91
2023/01/04 01:29:13;;;;;;;55.13;25.98;;;4.00;99.90;;;;;;5057307;28;20065;-91
2023/01/04 01:31:39;;;;;;;52.05;25.77;;;3.90;99.90;;;;;;5057897;28;20056;-91
2023/01/04 01:34:05;;;;;;;53.88;24.15;;;3.80;99.90;;;;;;5057785;28;20494;-91
2023/01/04 01:36:30;;;;;;;53.33;24.08;;;3.70;99.90;;;;;;5057340;28;20068;-91
2023/01/04 01:38:56;;;;;;;61.03;24.15;;;3.70;99.90;;;;;;5057225;28;20035;-91
2023/01/04 01:41:59;;;;;;;54.28;23.02;;;3.70;99.90;;;;;;5057236;28;20030;-91
2023/01/04 01:44:43;;;;;;;53.83;21.55;;;3.70;99.90;;;;;;5057194;28;20474;-90
2023/01/04 01:47:20;;;;;;;53.05;23.90;;;3.70;99.90;;;;;;5056950;28;20037;-91
2023/01/04 01:49:49;;;;;;;54.10;23.98;;;3.70;99.90;;;;;;5057199;28;20129;-90
2023/01/04 01:52:20;;;;;;;50.85;22.35;;;3.70;99.90;;;;;;5057221;28;20372;-91
2023/01/04 01:54:51;;;;;;;53.40;23.92;;;3.70;99.90;;;;;;5057169;28;20437;-90
2023/01/04 01:57:21;;;;;;;52.80;23.83;;;3.60;99.90;;;;;;5057248;28;20497;-90
2023/01/04 01:59:49;;;;;;;51.80;21.88;;;3.70;99.90;;;;;;5057128;28;20039;-91
2023/01/04 02:02:15;;;;;;;40.85;21.38;;;3.80;99.90;;;;;;4972545;28;20451;-92
2023/01/04 02:04:46;;;;;;;49.85;21.08;;;3.80;99.90;;;;;;5057149;28;20027;-92
2023/01/04 02:07:15;;;;;;;55.05;23.35;;;3.90;99.90;;;;;;4972246;28;20547;-91
2023/01/04 02:09:43;;;;;;;46.50;22.70;;;3.90;99.90;;;;;;4972256;28;20034;-91
2023/01/04 02:12:13;;;;;;;48.72;22.80;;;3.90;99.90;;;;;;5057413;28;20042;-91
2023/01/04 02:14:41;;;;;;;50.65;22.33;;;3.90;99.90;;;;;;5057018;28;20031;-91
2023/01/04 02:17:33;;;;;;;49.08;21.70;;;4.00;99.90;;;;;;5057000;28;20035;-91
2023/01/04 02:20:04;;;;;;;51.38;22.33;;;4.00;99.90;;;;;;5057088;28;20487;-91
2023/01/04 02:22:45;;;;;;;;;;;3.90;99.90;;;;;;5057686;28;20042;-90
2023/01/04 02:25:29;;;;;;;53.40;23.75;;;3.90;99.90;;;;;;5057018;28;19967;-92
2023/01/04 02:28:01;;;;;;;58.92;25.55;;;3.90;99.90;;;;;;5056980;28;20043;-91
2023/01/04 02:31:00;;;;;;;57.92;26.17;;;3.90;99.90;;;;;;5057068;28;20031;-91
2023/01/04 02:33:44;;;;;;;66.57;27.67;;;3.80;99.90;;;;;;5057068;28;20031;-91
2023/01/04 02:36:32;;;;;;;73.30;28.63;;;3.80;99.90;;;;;;4972290;28;20031;-90
2023/01/04 02:39:26;;;;;;;71.30;29.73;;;3.90;99.90;;;;;;5057091;28;20486;-90
2023/01/04 02:42:05;;;;;;;73.28;31.65;;;3.80;99.90;;;;;;5056830;28;20046;-91
2023/01/04 02:44:52;;;;;;;71.07;32.85;;;3.80;99.90;;;;;;5056842;28;20031;-91
2023/01/04 02:50:31;;;;;;;76.93;34.08;;;3.70;99.90;;;;;;4972007;28;20023;-91
2023/01/04 02:53:18;;;;;;;93.63;36.60;;;3.60;99.90;;;;;;5056791;28;20031;-90
2023/01/04 02:56:07;;;;;;;86.00;35.60;;;3.60;99.90;;;;;;4971603;28;20041;-91
2023/01/04 02:58:35;;;;;;;80.18;35.88;;;3.60;99.90;;;;;;4971959;28;20027;-90
2023/01/04 03:07:47;;;;;;;85.82;37.40;;;3.80;99.90;;;;;;4974399;28;20118;-92
2023/01/04 03:10:20;;;;;;;82.63;36.40;;;3.80;99.90;;;;;;5059928;28;20034;-91
2023/01/04 03:13:05;;;;;;;89.15;38.10;;;3.80;99.90;;;;;;5060080;28;20031;-91
2023/01/04 03:15:35;;;;;;;84.55;35.83;;;3.80;99.90;;;;;;5060129;28;20042;-92
2023/01/04 03:18:15;;;;;;;85.45;37.25;;;3.80;99.90;;;;;;5059920;28;20117;-91
2023/01/04 03:20:43;;;;;;;81.25;35.55;;;3.90;99.90;;;;;;5059749;28;20031;-91
2023/01/04 03:37:35;;;;;;;84.30;35.65;;;3.70;99.90;;;;;;4974628;28;20092;-91
2023/01/04 03:49:12;;;;;;;92.93;38.07;;;3.90;99.90;;;;;;4974479;28;20031;-91
2023/01/04 03:51:38;;;;;;;87.20;37.45;;;3.90;99.90;;;;;;5058874;28;20027;-90
2023/01/04 03:54:26;;;;;;;76.47;35.75;;;3.80;99.90;;;;;;5059050;28;20030;-91
2023/01/04 03:56:52;;;;;;;80.68;35.25;;;3.80;99.90;;;;;;5059235;28;20038;-90
2023/01/04 03:59:21;;;;;;;81.30;35.20;;;3.70;99.90;;;;;;4974021;28;20035;-91
2023/01/04 04:01:47;;;;;;;78.70;35.00;;;3.70;99.90;;;;;;4974195;28;20035;-90
2023/01/04 04:09:42;;;;;;;87.25;35.88;;;3.60;99.90;;;;;;4974295;28;20455;-91
2023/01/04 04:12:08;;;;;;;76.20;34.95;;;3.60;99.90;;;;;;5058368;28;20034;-91
2023/01/04 04:14:34;;;;;;;82.20;36.30;;;3.60;99.90;;;;;;5058617;28;20054;-90
2023/01/04 04:16:59;;;;;;;82.32;36.17;;;3.60;99.90;;;;;;5059078;28;20058;-90
2023/01/04 04:19:47;;;;;;;83.53;38.72;;;3.50;99.90;;;;;;5059009;28;20066;-92
2023/01/04 04:22:12;;;;;;;86.35;37.00;;;3.50;99.90;;;;;;5058601;28;20031;-91
2023/01/04 04:24:38;;;;;;;97.60;40.00;;;3.50;99.90;;;;;;5058944;28;20363;-91
2023/01/04 04:27:04;;;;;;;87.35;39.13;;;3.40;99.90;;;;;;5058229;28;20027;-90
2023/01/04 04:29:51;;;;;;;83.68;37.35;;;3.40;99.90;;;;;;5058773;28;20023;-90
2023/01/04 04:32:17;;;;;;;92.25;37.92;;;3.40;99.90;;;;;;5058450;28;20026;-91
2023/01/04 04:34:42;;;;;;;81.18;36.83;;;3.40;99.90;;;;;;5058794;28;20113;-91
2023/01/04 04:37:08;;;;;;;83.18;36.80;;;3.40;99.90;;;;;;5058875;28;20462;-90
2023/01/04 04:39:34;;;;;;;98.85;37.85;;;3.40;99.90;;;;;;5057987;28;20031;-91
2023/01/04 04:42:02;;;;;;;84.55;36.90;;;3.40;99.90;;;;;;5058437;28;20099;-92
2023/01/04 04:44:28;;;;;;;84.22;35.30;;;3.40;99.90;;;;;;5058128;28;20038;-91
2023/01/04 04:47:09;;;;;;;77.00;34.10;;;3.30;99.90;;;;;;5058516;28;20490;-91
2023/01/04 04:49:35;;;;;;;76.95;33.53;;;3.40;99.90;;;;;;5057945;28;20489;-90
2023/01/04 04:52:00;;;;;;;75.65;33.28;;;3.40;99.90;;;;;;5057742;28;20019;-90
2023/01/04 04:54:26;;;;;;;67.55;28.67;;;3.30;99.90;;;;;;5058172;28;20034;-90
2023/01/04 04:56:52;;;;;;;61.78;28.60;;;3.30;99.90;;;;;;5057826;28;20062;-90
2023/01/04 04:59:17;;;;;;;66.85;27.80;;;3.40;99.90;;;;;;5057675;28;20026;-90
2023/01/04 05:01:43;;;;;;;60.60;26.80;;;3.40;99.90;;;;;;5058089;28;20043;-91
2023/01/04 05:04:15;;;;;;;69.20;27.30;;;3.40;99.90;;;;;;5058044;28;20031;-90
2023/01/04 05:06:47;;;;;;;56.30;25.58;;;3.50;99.90;;;;;;4972980;28;20030;-91
2023/01/04 05:09:14;;;;;;;59.00;27.42;;;3.50;99.90;;;;;;5057576;28;20052;-91
2023/01/04 05:14:24;;;;;;;55.72;26.00;;;3.50;99.90;;;;;;4973046;28;20402;-92
2023/01/04 05:16:50;;;;;;;59.78;25.48;;;3.50;99.90;;;;;;5057712;28;20031;-91
2023/01/04 05:19:18;;;;;;;50.97;23.35;;;3.60;99.90;;;;;;5057612;28;20035;-90
2023/01/04 05:21:44;;;;;;;54.63;23.73;;;3.60;99.90;;;;;;5057367;28;20023;-91
2023/01/04 05:24:11;;;;;;;52.47;24.33;;;3.60;99.90;;;;;;5057176;28;20046;-91
2023/01/04 05:26:37;;;;;;;56.75;23.85;;;3.60;99.90;;;;;;5057175;28;20041;-90
2023/01/04 05:29:03;;;;;;;55.83;23.77;;;3.60;99.90;;;;;;5056874;28;20027;-91
2023/01/04 05:31:29;;;;;;;70.72;30.88;;;3.70;99.90;;;;;;5057330;28;20102;-91
2023/01/04 05:33:54;;;;;;;45.28;21.17;;;3.70;99.90;;;;;;5057363;28;20391;-90
2023/01/04 05:36:20;;;;;;;40.10;18.60;;;3.70;99.90;;;;;;5057616;28;20111;-92
2023/01/04 05:38:46;;;;;;;47.60;20.05;;;3.80;99.90;;;;;;5057340;28;20041;-92
2023/01/04 05:43:55;;;;;;;43.67;19.77;;;3.80;99.90;;;;;;4972728;28;20030;-91
2023/01/04 05:46:21;;;;;;;46.33;20.92;;;3.80;99.90;;;;;;5056946;28;20038;-91
2023/01/04 05:48:47;;;;;;;44.40;19.38;;;3.80;99.90;;;;;;5057308;28;20039;-92
2023/01/04 05:51:12;;;;;;;41.95;20.80;;;3.80;99.90;;;;;;5056887;28;20031;-91
2023/01/04 05:53:38;;;;;;;43.47;21.25;;;3.80;99.90;;;;;;5058312;28;20027;-91
2023/01/04 05:56:04;;;;;;;51.78;22.10;;;3.70;99.90;;;;;;5056662;28;20043;-91
2023/01/04 05:58:30;;;;;;;48.35;23.38;;;3.70;99.90;;;;;;5056953;28;20042;-91
2023/01/04 06:00:56;;;;;;;51.10;22.38;;;3.70;99.90;;;;;;5057017;28;20031;-91
2023/01/04 06:03:21;;;;;;;47.58;23.63;;;3.70;99.90;;;;;;4972509;28;20031;-91
2023/01/04 06:05:50;;;;;;;50.80;23.05;;;3.70;99.90;;;;;;5056482;28;20092;-91
2023/01/04 06:08:16;;;;;;;48.15;22.23;;;3.60;99.90;;;;;;4972829;28;20034;-91
2023/01/04 06:10:42;;;;;;;48.97;22.30;;;3.60;99.90;;;;;;5057035;28;20027;-90
2023/01/04 06:13:08;;;;;;;55.47;23.90;;;3.60;99.90;;;;;;4972205;28;20037;-90
2023/01/04 06:15:39;;;;;;;53.85;23.90;;;3.70;99.90;;;;;;5056448;28;20027;-91
2023/01/04 06:18:04;;;;;;;53.60;23.17;;;3.70;99.90;;;;;;4971755;28;20077;-91
2023/01/04 06:20:30;;;;;;;53.55;25.10;;;3.70;99.90;;;;;;5056261;28;20031;-91
2023/01/04 06:22:56;;;;;;;53.13;22.75;;;3.70;99.90;;;;;;5056189;28;20036;-91
2023/01/04 06:25:21;;;;;;;48.67;22.70;;;3.60;99.90;;;;;;5057067;28;20125;-91
2023/01/04 06:27:47;;;;;;;50.58;24.48;;;3.60;99.90;;;;;;5057110;28;20035;-91
2023/01/04 06:30:13;;;;;;;59.92;24.70;;;3.50;99.90;;;;;;5057113;28;20023;-91
2023/01/04 06:32:38;;;;;;;50.08;23.92;;;3.50;99.90;;;;;;5056499;28;20080;-91
2023/01/04 06:38:52;;;;;;;54.28;24.77;;;3.50;99.90;;;;;;4973702;28;20070;-92
2023/01/04 06:41:18;;;;;;;44.35;23.55;;;3.50;99.90;;;;;;4973731;28;20041;-92
2023/01/04 06:43:44;;;;;;;57.70;24.20;;;3.50;99.90;;;;;;5060298;28;20034;-91
2023/01/04 06:46:10;;;;;;;54.70;23.65;;;3.50;99.90;;;;;;5060874;28;20031;-91
2023/01/04 06:48:35;;;;;;;51.85;24.42;;;3.40;99.90;;;;;;5059775;28;20070;-92
2023/01/04 06:51:01;;;;;;;50.13;22.77;;;3.40;99.90;;;;;;5060067;28;20031;-91
2023/01/04 06:53:27;;;;;;;54.78;24.48;;;3.50;99.90;;;;;;5059677;28;20019;-91
2023/01/04 06:55:52;;;;;;;55.00;25.20;;;3.50;99.90;;;;;;5060693;28;20035;-92
2023/01/04 06:58:18;;;;;;;50.83;23.80;;;3.50;99.90;;;;;;5060622;28;20133;-92
2023/01/04 07:00:45;;;;;;;51.35;22.70;;;3.50;99.90;;;;;;5060154;28;20478;-92
2023/01/04 07:03:10;;;;;;;47.42;21.77;;;3.50;99.90;;;;;;4974457;28;20077;-92
2023/01/04 07:05:36;;;;;;;51.58;22.48;;;3.50;99.90;;;;;;5059018;28;20035;-92
2023/01/04 07:08:02;;;;;;;45.72;22.15;;;3.40;99.90;;;;;;5059512;28;20041;-91
2023/01/04 07:10:28;;;;;;;48.10;19.98;;;3.50;99.90;;;;;;5059710;28;20019;-92
2023/01/04 07:12:54;;;;;;;44.05;21.10;;;3.50;99.90;;;;;;5059449;28;20031;-91
2023/01/04 07:15:20;;;;;;;48.95;21.52;;;3.50;99.90;;;;;;4974565;28;20057;-91
2023/01/04 07:17:47;;;;;;;39.55;18.60;;;3.50;99.90;;;;;;5059602;28;20026;-93
2023/01/04 07:20:13;;;;;;;40.22;19.30;;;3.50;99.90;;;;;;5059057;28;20035;-93
2023/01/04 07:22:38;;;;;;;38.97;18.48;;;3.40;99.90;;;;;;5060337;28;20479;-92
2023/01/04 07:25:04;;;;;;;37.78;17.67;;;3.40;99.90;;;;;;5060360;28;20497;-92
2023/01/04 07:27:30;;;;;;;36.88;16.98;;;3.50;99.90;;;;;;4975047;28;20425;-92
2023/01/04 07:29:56;;;;;;;34.70;17.42;;;3.50;99.90;;;;;;5060199;28;20073;-91
2023/01/04 07:32:22;;;;;;;35.78;17.17;;;3.50;99.90;;;;;;5060205;28;20038;-92
2023/01/04 07:34:48;;;;;;;32.58;16.27;;;3.50;99.90;;;;;;4974593;28;20061;-92
2023/01/04 07:37:14;;;;;;;38.03;16.77;;;3.50;99.90;;;;;;5059103;28;20030;-93
2023/01/04 07:39:41;;;;;;;30.67;16.27;;;3.60;99.90;;;;;;4973664;28;20039;-92
2023/01/04 07:42:06;;;;;;;40.42;18.75;;;3.60;99.90;;;;;;4973679;28;20031;-91
2023/01/04 07:44:32;;;;;;;41.65;19.23;;;3.60;99.90;;;;;;4973588;28;20042;-91
2023/01/04 07:46:58;;;;;;;41.15;19.35;;;3.50;99.90;;;;;;4973561;28;20026;-93
2023/01/04 07:49:24;;;;;;;49.85;20.00;;;3.50;99.90;;;;;;5058846;28;20019;-92
2023/01/04 07:51:50;;;;;;;44.60;20.10;;;3.50;99.90;;;;;;5058321;28;20031;-92
2023/01/04 07:54:17;;;;;;;45.95;19.90;;;3.50;99.90;;;;;;5058679;28;20035;-93
2023/01/04 07:56:44;;;;;;;43.92;19.30;;;3.50;99.90;;;;;;5058866;28;20102;-92
2023/01/04 07:59:12;;;;;;;45.05;18.85;;;3.60;99.90;;;;;;5058594;28;20117;-92
2023/01/04 08:01:44;;;;;;;37.75;17.92;;;3.60;99.90;;;;;;4973504;28;20035;-92
2023/01/04 08:04:12;;;;;;;38.45;18.17;;;3.60;99.90;;;;;;5058460;28;20031;-92
2023/01/04 08:06:38;;;;;;;36.20;18.02;;;3.60;99.90;;;;;;4973250;28;20057;-92
2023/01/04 08:09:05;;;;;;;35.95;17.33;;;3.60;99.90;;;;;;4972917;28;20054;-93
2023/01/04 08:11:32;;;;;;;34.30;15.90;;;3.60;99.90;;;;;;4973109;28;20077;-92
2023/01/04 08:13:58;;;;;;;30.02;15.75;;;3.70;99.90;;;;;;5057986;28;20035;-93
2023/01/04 08:16:31;;;;;;;34.00;17.58;;;3.70;99.90;;;;;;5058032;28;20041;-92
2023/01/04 08:19:00;;;;;;;37.58;16.52;;;3.60;99.90;;;;;;5057982;28;20486;-93
2023/01/04 08:21:28;;;;;;;33.15;18.13;;;3.60;99.90;;;;;;4973157;28;20474;-94
2023/01/04 08:23:54;;;;;;;41.03;17.15;;;3.60;99.90;;;;;;4973170;28;20509;-92
2023/01/04 08:26:20;;;;;;;33.83;18.30;;;3.60;99.90;;;;;;5057827;28;20035;-93
2023/01/04 08:28:46;;;;;;;36.00;18.88;;;3.60;99.90;;;;;;5057725;28;20486;-93
2023/01/04 08:31:17;;;;;;;34.25;18.77;;;3.60;99.90;;;;;;5057564;28;20046;-93
2023/01/04 08:33:43;;;;;;;39.58;17.70;;;3.60;99.90;;;;;;5057830;28;20035;-93
2023/01/04 08:36:16;;;;;;;28.45;14.50;;;3.60;99.90;;;;;;4973258;28;20038;-92
2023/01/04 08:38:42;;;;;;;28.85;15.00;;;3.60;99.90;;;;;;5057771;28;20498;-92
2023/01/04 08:41:08;;;;;;;31.83;14.15;;;3.70;99.90;;;;;;5057891;28;20041;-91
2023/01/04 08:43:34;;;;;;;32.85;16.13;;;3.70;99.90;;;;;;4973374;28;20041;-92
2023/01/04 08:46:13;;;;;;;29.90;14.05;;;3.70;99.90;;;;;;4973079;28;20035;-92
2023/01/04 08:48:39;;;;;;;21.33;12.07;;;3.70;99.90;;;;;;5057572;28;20493;-92
2023/01/04 08:51:08;;;;;;;21.88;11.95;;;3.80;99.90;;;;;;5057673;28;20118;-92
2023/01/04 08:53:34;;;;;;;28.17;13.02;;;3.80;99.90;;;;;;5057735;28;20034;-92
2023/01/04 08:56:01;;;;;;;22.30;11.82;;;3.80;99.90;;;;;;4972837;28;20087;-92
2023/01/04 08:58:28;;;;;;;21.83;11.80;;;3.80;99.90;;;;;;4972984;28;20584;-93
2023/01/04 09:01:00;;;;;;;17.45;10.02;;;3.80;99.90;;;;;;4973252;28;20057;-93
2023/01/04 09:03:26;;;;;;;17.35;9.65;;;3.90;99.90;;;;;;4972190;28;20035;-93
2023/01/04 09:05:51;;;;;;;20.35;8.77;;;3.90;99.90;;;;;;5056915;28;20038;-92
2023/01/04 09:08:17;;;;;;;14.15;8.38;;;4.00;99.90;;;;;;5057249;28;20435;-92
2023/01/04 09:10:43;;;;;;;19.20;7.90;;;4.00;99.90;;;;;;5057011;28;20039;-93
2023/01/04 09:13:08;;;;;;;14.10;7.03;;;4.10;99.90;;;;;;5057488;28;20034;-92
2023/01/04 09:15:34;;;;;;;16.08;7.38;;;4.10;99.90;;;;;;5057101;28;20027;-93
2023/01/04 09:18:00;;;;;;;17.60;7.22;;;4.20;99.90;;;;;;4972707;28;20058;-92
2023/01/04 09:20:26;;;;;;;16.67;7.00;;;4.20;99.90;;;;;;5057246;28;20069;-92
2023/01/04 09:22:52;;;;;;;14.18;5.25;;;4.20;99.90;;;;;;4972395;28;20031;-93
2023/01/04 09:25:17;;;;;;;11.50;5.22;;;4.30;99.90;;;;;;4972520;28;20041;-92
2023/01/04 09:27:43;;;;;;;12.65;5.18;;;4.40;99.90;;;;;;5056994;28;20125;-92
2023/01/04 09:30:21;;;;;;;9.73;5.15;;;4.40;99.90;;;;;;5056974;28;20023;-92
2023/01/04 09:32:47;;;;;;;11.57;4.60;;;4.40;99.90;;;;;;5057029;28;20390;-93
2023/01/04 09:35:13;;;;;;;16.42;5.15;;;4.50;99.90;;;;;;5057006;28;20126;-92
2023/01/04 09:37:38;;;;;;;11.18;4.95;;;4.60;99.90;;;;;;5056850;28;20532;-93
2023/01/04 09:40:05;;;;;;;13.75;4.65;;;4.70;99.90;;;;;;5056474;28;20035;-92
2023/01/04 09:42:39;;;;;;;11.80;3.70;;;4.70;99.90;;;;;;5056788;28;20038;-91
2023/01/04 09:45:16;;;;;;;9.23;4.40;;;4.70;99.90;;;;;;4972128;28;20133;-92
2023/01/04 09:47:54;;;;;;;7.03;3.45;;;4.70;99.90;;;;;;5056490;28;20084;-91
2023/01/04 09:50:29;;;;;;;10.48;3.83;;;4.80;99.90;;;;;;5056306;28;20039;-91
2023/01/04 09:53:11;;;;;;;6.45;3.90;;;4.80;99.90;;;;;;5056606;28;20063;-91
2023/01/04 09:55:41;;;;;;;12.63;4.20;;;4.90;99.90;;;;;;5056931;28;20031;-92
2023/01/04 09:58:22;;;;;;;9.85;4.18;;;4.90;99.90;;;;;;5056660;28;20496;-91
2023/01/04 10:01:34;;;;;;;8.55;4.63;;;4.90;99.90;;;;;;5056555;28;20528;-91
2023/01/04 10:04:25;;;;;;;5.93;2.65;;;5.00;99.90;;;;;;4933845;28;20047;-91
2023/01/04 10:06:52;;;;;;;4.53;2.47;;;5.00;99.90;;;;;;4971628;28;20042;-90
2023/01/04 10:09:18;;;;;;;10.93;3.10;;;5.00;99.90;;;;;;4972143;28;20130;-91
2023/01/04 10:12:18;;;;;;;5.07;2.55;;;5.10;99.90;;;;;;5073256;28;20029;-92
2023/01/04 10:14:52;;;;;;;8.10;3.30;;;5.10;99.90;;;;;;4972262;28;20123;-91
2023/01/04 10:17:46;;;;;;;6.50;3.30;;;5.20;99.90;;;;;;5060332;28;20552;-91
2023/01/04 10:20:27;;;;;;;4.03;2.30;;;5.10;99.90;;;;;;5060530;28;20035;-92
2023/01/04 10:22:58;;;;;;;5.97;2.60;;;5.20;99.90;;;;;;5060553;28;20050;-92
2023/01/04 10:25:38;;;;;;;6.03;2.65;;;5.20;99.90;;;;;;5060370;28;20130;-93
2023/01/04 10:28:32;;;;;;;8.27;3.05;;;5.20;99.90;;;;;;4975358;28;20065;-92
2023/01/04 10:31:05;;;;;;;5.93;3.00;;;5.10;99.90;;;;;;5060663;28;20039;-93
2023/01/04 10:33:38;;;;;;;11.85;4.97;;;5.10;99.90;;;;;;5060211;28;20031;-92
2023/01/04 10:36:20;;;;;;;6.60;4.10;;;5.10;99.90;;;;;;4974841;28;20497;-92
2023/01/04 10:38:52;;;;;;;7.70;4.00;;;5.10;99.90;;;;;;5059811;28;20041;-93
2023/01/04 10:41:25;;;;;;;9.63;3.67;;;5.10;99.90;;;;;;5059736;28;20042;-92
2023/01/04 10:44:04;;;;;;;12.07;3.90;;;5.10;99.90;;;;;;4974759;28;20046;-91
2023/01/04 10:46:39;;;;;;;7.18;3.70;;;5.10;99.90;;;;;;4974695;28;20031;-92
2023/01/04 10:49:17;;;;;;;9.45;3.50;;;5.10;99.90;;;;;;5059798;28;20084;-92
2023/01/04 10:52:01;;;;;;;9.05;4.00;;;5.10;99.90;;;;;;5059668;28;20482;-91
2023/01/04 10:54:33;;;;;;;7.72;4.13;;;5.20;99.90;;;;;;5059896;28;20084;-91
2023/01/04 10:57:23;;;;;;;10.10;3.70;;;5.20;99.90;;;;;;4974419;28;20074;-92
2023/01/04 11:00:29;;;;;;;12.32;4.20;;;5.20;99.90;;;;;;5059665;28;20041;-93
2023/01/04 11:03:28;;;;;;;8.20;4.18;;;5.20;99.90;;;;;;4974428;28;20109;-92
2023/01/04 11:06:09;;;;;;;14.43;5.13;;;5.20;99.90;;;;;;5059320;28;20635;-91
2023/01/04 11:08:49;;;;;;;10.38;5.10;;;5.20;99.90;;;;;;4974255;28;20122;-93
2023/01/04 11:11:24;;;;;;;11.02;4.80;;;5.20;99.90;;;;;;4973970;28;20077;-92
2023/01/04 11:13:50;;;;;;;13.15;5.20;;;5.20;99.90;;;;;;5059645;28;20080;-92
2023/01/04 11:16:16;;;;;;;7.78;5.10;;;5.20;99.90;;;;;;4976462;28;20538;-92
2023/01/04 11:18:45;;;;;;;9.10;5.75;;;5.20;99.90;;;;;;5059827;28;20038;-92
2023/01/04 11:21:17;;;;;;;9.10;5.32;;;5.20;99.90;;;;;;5059291;28;20035;-92
2023/01/04 11:23:43;;;;;;;16.20;7.10;;;5.30;99.90;;;;;;5059199;28;20049;-92
2023/01/04 11:26:14;;;;;;;9.65;5.70;;;5.30;99.90;;;;;;5074957;28;20039;-92
2023/01/04 11:28:40;;;;;;;13.02;6.97;;;5.30;99.90;;;;;;4973822;28;20027;-92
2023/01/04 11:31:56;;;;;;;14.00;6.75;;;5.30;99.90;;;;;;5058349;28;20139;-91
2023/01/04 11:34:55;;;;;;;15.93;7.47;;;5.30;99.90;;;;;;4990541;28;20200;-93
2023/01/04 11:37:29;;;;;;;12.85;6.72;;;5.30;99.90;;;;;;4974414;28;20041;-91
2023/01/04 11:40:15;;;;;;;13.15;6.60;;;5.40;99.90;;;;;;5059397;28;20072;-91
2023/01/04 11:42:45;;;;;;;11.65;5.60;;;5.30;99.90;;;;;;5058788;28;20037;-91
2023/01/04 11:45:19;;;;;;;7.88;5.20;;;5.30;99.90;;;;;;4973860;28;20031;-90
2023/01/04 11:47:50;;;;;;;11.80;5.78;;;5.40;99.90;;;;;;5058761;28;20122;-92
2023/01/04 11:50:37;;;;;;;8.05;5.70;;;5.40;99.90;;;;;;5058905;28;20051;-92
2023/01/04 11:53:20;;;;;;;8.90;5.60;;;5.40;99.90;;;;;;5060071;28;20038;-92
2023/01/04 11:55:46;;;;;;;9.70;5.47;;;5.40;99.90;;;;;;4973953;28;20065;-91
2023/01/04 11:58:14;;;;;;;9.75;5.43;;;5.50;99.90;;;;;;5058821;28;20030;-91
2023/01/04 12:00:58;;;;;;;7.38;5.35;;;5.50;99.90;;;;;;5058299;28;20114;-91
2023/01/04 12:03:36;;;;;;;10.38;5.15;;;5.50;99.90;;;;;;5059292;28;20042;-91
2023/01/04 12:06:02;;;;;;;17.65;5.03;;;5.50;99.90;;;;;;5058764;28;20123;-92
2023/01/04 12:08:32;;;;;;;6.65;4.53;;;5.50;99.90;;;;;;5058429;28;20035;-92
2023/01/04 12:11:00;;;;;;;8.35;5.28;;;5.50;99.90;;;;;;5058582;28;20031;-91
2023/01/04 12:13:27;;;;;;;13.43;5.00;;;5.60;99.90;;;;;;5058340;28;20034;-91
2023/01/04 12:16:18;;;;;;;11.38;6.28;;;5.60;99.90;;;;;;4973627;28;20117;-90
2023/01/04 12:18:45;;;;;;;7.68;5.00;;;5.60;99.90;;;;;;5058454;28;20031;-92
2023/01/04 12:21:21;;;;;;;9.57;5.95;;;5.60;99.90;;;;;;4973391;28;20034;-91
2023/01/04 12:23:47;;;;;;;12.10;5.95;;;5.70;99.90;;;;;;4973846;28;20030;-92
2023/01/04 12:26:28;;;;;;;11.10;4.97;;;5.70;99.90;;;;;;4973792;28;20023;-93
2023/01/04 12:29:22;;;;;;;10.32;5.65;;;5.70;99.90;;;;;;4973325;28;20062;-90
2023/01/04 12:32:00;;;;;;;11.35;5.70;;;5.70;99.90;;;;;;5059156;28;20027;-91
2023/01/04 12:34:29;;;;;;;16.52;6.63;;;5.70;99.90;;;;;;5058629;28;20098;-92
2023/01/04 12:36:57;;;;;;;11.63;5.78;;;5.70;99.90;;;;;;5058558;28;20473;-92
2023/01/04 12:39:57;;;;;;;9.65;5.45;;;5.80;99.90;;;;;;5056810;28;20500;-92
2023/01/04 12:42:26;;;;;;;17.98;6.35;;;5.80;99.90;;;;;;5057792;28;20046;-91
2023/01/04 12:44:51;;;;;;;8.63;5.45;;;5.80;99.90;;;;;;4973159;28;20031;-91
2023/01/04 12:50:18;;;;;;;9.57;5.85;;;5.90;99.90;;;;;;4973268;28;20031;-91
2023/01/04 12:52:47;;;;;;;9.10;5.50;;;5.90;99.90;;;;;;5057608;28;20039;-92
2023/01/04 12:55:25;;;;;;;10.48;4.85;;;5.90;99.90;;;;;;4973960;28;20117;-92
2023/01/04 12:57:51;;;;;;;11.00;5.97;;;6.00;99.90;;;;;;5058677;28;20043;-93
2023/01/04 13:00:17;;;;;;;11.52;5.70;;;6.00;99.90;;;;;;5057316;28;20030;-91
2023/01/04 13:02:46;;;;;;;13.60;6.50;;;6.00;99.90;;;;;;4973056;28;20035;-92
2023/01/04 13:05:15;;;;;;;10.57;6.20;;;6.00;99.90;;;;;;4973027;28;20038;-92
2023/01/04 13:07:42;;;;;;;11.05;5.60;;;6.00;99.90;;;;;;5057243;28;20046;-90
2023/01/04 13:10:26;;;;;;;11.52;5.47;;;6.00;99.90;;;;;;5074355;28;20092;-91
2023/01/04 13:13:07;;;;;;;9.23;5.13;;;6.10;99.90;;;;;;5057320;28;20039;-92
2023/01/04 13:15:48;;;;;;;11.47;5.57;;;6.10;99.90;;;;;;5057279;28;20041;-90
2023/01/04 13:18:38;;;;;;;7.88;4.70;;;6.10;99.90;;;;;;5073958;28;20035;-91
2023/01/04 13:21:15;;;;;;;10.38;5.85;;;6.10;99.90;;;;;;4972571;28;20043;-93
2023/01/04 13:23:51;;;;;;;7.18;4.93;;;6.10;99.90;;;;;;5057158;28;20042;-91
2023/01/04 13:26:30;;;;;;;8.88;5.03;;;6.10;99.90;;;;;;5056841;28;20486;-91
2023/01/04 13:29:45;;;;;;;13.93;5.15;;;6.10;99.90;;;;;;5057435;28;20047;-90
2023/01/04 13:32:22;;;;;;;8.52;5.85;;;6.10;99.90;;;;;;5057024;28;20034;-92
2023/01/04 13:35:03;;;;;;;11.60;5.97;;;6.10;99.90;;;;;;4972508;28;20042;-92
2023/01/04 13:37:34;;;;;;;6.50;5.28;;;6.10;99.90;;;;;;4972405;28;20034;-91
2023/01/04 13:40:12;;;;;;;11.85;5.00;;;6.10;99.90;;;;;;5057423;28;20477;-91
2023/01/04 13:42:41;;;;;;;6.78;4.55;;;6.20;99.90;;;;;;5057180;28;20066;-92
2023/01/04 13:45:33;;;;;;;9.23;5.30;;;6.20;99.90;;;;;;5056909;28;20130;-93
2023/01/04 13:48:03;;;;;;;8.05;5.28;;;6.20;99.90;;;;;;5057913;28;20490;-92
2023/01/04 13:50:36;;;;;;;9.60;4.78;;;6.20;99.90;;;;;;5057281;28;20031;-94
2023/01/04 13:53:03;;;;;;;10.23;5.78;;;6.20;99.90;;;;;;4973804;28;20039;-93
2023/01/04 13:55:50;;;;;;;8.32;5.15;;;6.10;99.90;;;;;;5073843;28;20042;-92
2023/01/04 13:58:21;;;;;;;7.57;5.00;;;6.20;99.90;;;;;;4972611;28;20130;-92
2023/01/04 14:00:52;;;;;;;10.48;5.93;;;6.20;99.90;;;;;;5056677;28;20089;-92